Time;durP1;ratioP1;P1;durP2;ratioP2;P2;SDS_P1;SDS_P2;PMS_P1;PMS_P2;Temp;Humidity;BMP_temperature;BMP_pressure;BME280_temperature;BME280_humidity;BME280_pressure;Samples;Min_cycle;Max_cycle;Signal;HPM_P1;HPM_P2
2022/12/23 00:01:27;;;;;;;15.63;7.68;;;;;;;9.02;100.00;100223.88;5028933;28;20029;-81
2022/12/23 00:03:57;;;;;;;16.75;7.97;;;;;;;9.00;100.00;100220.47;5029405;28;20029;-80
2022/12/23 00:06:22;;;;;;;15.73;7.80;;;;;;;8.99;100.00;100223.94;5027869;28;20036;-81
2022/12/23 00:08:47;;;;;;;15.10;7.68;;;;;;;9.00;100.00;100228.25;5025940;28;20036;-80
2022/12/23 00:11:16;;;;;;;14.60;8.55;;;;;;;8.99;100.00;100235.16;5026700;28;20113;-81
2022/12/23 00:16:25;;;;;;;14.82;8.40;;;;;;;9.00;100.00;100228.25;5026443;28;20068;-82
2022/12/23 00:18:52;;;;;;;14.60;8.55;;;;;;;9.01;100.00;100242.94;5027424;28;20511;-80
2022/12/23 00:21:17;;;;;;;14.65;8.65;;;;;;;9.00;100.00;100242.06;5028118;28;20025;-80
2022/12/23 00:23:45;;;;;;;14.13;8.90;;;;;;;9.00;100.00;100246.41;5028309;28;20110;-81
2022/12/23 00:26:37;;;;;;;17.80;9.98;;;;;;;9.00;100.00;100246.41;5025697;28;20044;-81
2022/12/23 00:29:02;;;;;;;13.63;8.35;;;;;;;9.01;100.00;100248.13;5025079;28;20128;-81
2022/12/23 00:31:27;;;;;;;17.15;10.65;;;;;;;9.01;100.00;100243.75;5027117;28;20108;-81
2022/12/23 00:33:53;;;;;;;17.83;10.38;;;;;;;9.00;100.00;100247.25;5026504;28;20736;-81
2022/12/23 00:36:25;;;;;;;14.65;9.65;;;;;;;9.01;100.00;100248.13;5024669;28;20068;-81
2022/12/23 00:44:19;;;;;;;16.27;11.23;;;;;;;9.00;100.00;100252.44;5027103;28;20052;-82
2022/12/23 00:46:44;;;;;;;16.60;10.98;;;;;;;9.01;100.00;100259.31;5026675;28;20028;-81
2022/12/23 00:51:59;;;;;;;20.02;11.35;;;;;;;9.02;100.00;100261.03;5026721;28;20040;-80
2022/12/23 00:54:24;;;;;;;19.67;11.40;;;;;;;9.03;100.00;100261.91;5029732;28;20075;-81
2022/12/23 00:56:50;;;;;;;16.98;10.95;;;;;;;9.03;100.00;100270.50;5034605;28;20380;-81
2022/12/23 00:59:15;;;;;;;17.60;11.15;;;;;;;9.03;100.00;100274.88;5032509;28;20021;-80
2022/12/23 01:07:09;;;;;;;18.35;11.05;;;;;;;9.01;100.00;100289.63;5032868;28;20118;-80
2022/12/23 01:09:35;;;;;;;14.90;9.77;;;;;;;9.02;100.00;100292.16;5034623;28;20475;-80
2022/12/23 01:12:00;;;;;;;16.15;10.23;;;;;;;9.02;100.00;100292.16;5032527;28;20052;-80
2022/12/23 01:14:27;;;;;;;16.95;10.07;;;;;;;9.02;100.00;100297.34;5034947;28;20049;-80
2022/12/23 01:16:52;;;;;;;19.58;10.27;;;;;;;9.02;100.00;100291.31;5032576;28;20025;-80
2022/12/23 01:19:17;;;;;;;15.63;10.32;;;;;;;9.02;100.00;100288.72;5032690;28;20103;-80
2022/12/23 01:21:43;;;;;;;17.85;10.80;;;;;;;9.00;100.00;100287.94;5031440;28;20468;-80
2022/12/23 01:24:08;;;;;;;16.70;10.45;;;;;;;9.01;100.00;100294.81;5033388;28;20373;-79
2022/12/23 01:26:34;;;;;;;15.80;10.55;;;;;;;9.01;100.00;100300.00;5032962;28;20329;-80
2022/12/23 01:28:59;;;;;;;17.63;10.52;;;;;;;9.02;100.00;100297.34;5036773;28;20484;-80
2022/12/23 01:31:26;;;;;;;16.80;10.43;;;;;;;9.00;100.00;100290.50;5033139;28;20507;-80
2022/12/23 01:33:52;;;;;;;16.23;10.50;;;;;;;8.99;100.00;100297.44;5039468;28;20028;-80
2022/12/23 01:36:17;;;;;;;18.25;10.55;;;;;;;9.00;100.00;100293.94;5046221;28;20036;-80
2022/12/23 01:38:43;;;;;;;19.08;10.40;;;;;;;8.99;100.00;100287.06;5036519;28;20033;-80
2022/12/23 01:42:42;;;;;;;17.00;9.63;;;;;;;9.00;100.00;100303.50;5034532;28;20033;-80
2022/12/23 01:44:41;;;;;;;16.05;10.40;;;;;;;9.00;100.00;100293.94;5043072;28;20036;-80
2022/12/23 01:47:10;;;;;;;17.52;9.77;;;;;;;8.98;100.00;100303.50;5050412;28;20024;-80
2022/12/23 01:49:35;;;;;;;16.58;10.38;;;;;;;8.98;100.00;100306.09;5025639;28;20032;-80
2022/12/23 01:52:00;;;;;;;17.13;9.98;;;;;;;9.00;100.00;100313.88;5033123;28;20025;-80
2022/12/23 01:54:26;;;;;;;17.10;9.65;;;;;;;9.00;100.00;100313.88;5039392;28;20375;-80
2022/12/23 01:56:51;;;;;;;18.70;9.90;;;;;;;9.00;100.00;100311.28;5049403;28;20030;-80
2022/12/23 02:04:46;;;;;;;18.17;9.18;;;;;;;9.00;100.00;100329.44;5034539;28;20055;-80
2022/12/23 02:09:56;;;;;;;19.45;9.70;;;;;;;8.99;100.00;100331.16;5039422;28;20028;-80
2022/12/23 02:12:30;;;;;;;16.80;9.80;;;;;;;9.00;100.00;100332.88;5041753;28;20025;-80
2022/12/23 02:18:17;;;;;;;18.02;10.60;;;;;;;9.01;100.00;100349.31;5034657;28;20223;-79
2022/12/23 02:21:07;;;;;;;18.80;10.32;;;;;;;9.00;100.00;100350.19;5044670;28;20033;-80
2022/12/23 02:23:51;;;;;;;18.02;10.52;;;;;;;9.00;100.00;100353.63;5031435;28;20100;-80
2022/12/23 02:26:29;;;;;;;16.77;10.63;;;;;;;9.00;100.00;100339.81;5033664;28;20033;-80
2022/12/23 02:29:31;;;;;;;18.10;10.18;;;;;;;9.00;100.00;100345.84;5029863;28;20024;-80
2022/12/23 02:32:22;;;;;;;16.88;10.85;;;;;;;8.98;100.00;100336.41;5041353;28;20082;-80
2022/12/23 02:35:00;;;;;;;18.55;9.93;;;;;;;8.98;100.00;100350.22;5030883;28;20025;-80
2022/12/23 02:37:34;;;;;;;17.88;9.93;;;;;;;8.98;100.00;100358.00;5025557;28;20095;-80
2022/12/23 02:40:44;;;;;;;17.00;9.98;;;;;;;8.99;100.00;100369.25;5030934;28;20048;-80
2022/12/23 02:43:12;;;;;;;14.43;9.20;;;;;;;8.98;100.00;100365.78;5031569;28;20036;-80
2022/12/23 02:45:43;;;;;;;17.52;10.23;;;;;;;8.96;100.00;100365.84;5032431;28;20025;-80
2022/12/23 02:48:29;;;;;;;14.73;9.30;;;;;;;8.97;100.00;100382.25;5030525;28;20025;-80
2022/12/23 02:50:57;;;;;;;17.38;9.88;;;;;;;8.96;100.00;100386.59;5029598;28;20156;-80
2022/12/23 02:53:31;;;;;;;15.73;9.45;;;;;;;8.96;100.00;100384.00;5030052;28;20395;-80
2022/12/23 02:55:58;;;;;;;14.30;8.77;;;;;;;8.96;100.00;100404.75;5020851;28;20392;-80
2022/12/23 02:58:29;;;;;;;14.90;9.15;;;;;;;8.96;100.00;100402.16;5030584;28;20049;-80
2022/12/23 03:00:56;;;;;;;15.05;9.02;;;;;;;8.96;100.00;100404.75;5034730;28;20077;-80
2022/12/23 03:03:22;;;;;;;18.17;8.95;;;;;;;8.97;100.00;100410.78;5030719;28;20075;-80
2022/12/23 03:05:49;;;;;;;15.55;8.80;;;;;;;8.99;100.00;100415.94;5031307;28;20030;-80
2022/12/23 03:08:28;;;;;;;14.05;8.77;;;;;;;8.98;100.00;100403.88;5031789;28;20101;-80
2022/12/23 03:11:07;;;;;;;13.68;8.27;;;;;;;8.98;100.00;100406.47;5030429;28;20025;-79
2022/12/23 03:13:51;;;;;;;13.20;8.50;;;;;;;8.96;100.00;100402.16;5027772;28;20013;-80
2022/12/23 03:16:25;;;;;;;13.93;8.25;;;;;;;8.99;100.00;100402.97;5026629;28;20025;-80
2022/12/23 03:19:18;;;;;;;13.10;7.97;;;;;;;8.98;100.00;100398.69;5034597;28;20053;-80
2022/12/23 03:21:51;;;;;;;12.55;7.72;;;;;;;8.97;100.00;100400.41;5027207;28;20033;-80
2022/12/23 03:24:41;;;;;;;12.32;7.95;;;;;;;8.96;100.00;100391.78;5028292;28;20025;-80
2022/12/23 03:27:17;;;;;;;12.55;7.88;;;;;;;8.97;100.00;100392.63;5031791;28;20029;-80
2022/12/23 03:30:04;;;;;;;13.13;7.32;;;;;;;8.96;100.00;100396.97;5038902;28;20096;-80
2022/12/23 03:32:35;;;;;;;12.00;7.18;;;;;;;8.97;100.00;100400.41;5029168;28;20024;-80
2022/12/23 03:35:03;;;;;;;11.77;6.90;;;;;;;8.97;100.00;100403.00;5034174;28;20033;-80
2022/12/23 03:37:32;;;;;;;11.98;7.05;;;;;;;8.95;100.00;100403.06;5035137;28;20551;-80
2022/12/23 03:40:05;;;;;;;12.00;6.85;;;;;;;8.96;100.00;100404.75;5042567;28;20168;-80
2022/12/23 03:42:36;;;;;;;13.63;7.25;;;;;;;8.96;100.00;100401.31;5048024;28;20041;-80
2022/12/23 03:45:08;;;;;;;12.43;7.55;;;;;;;8.96;100.00;100396.97;5042472;28;20033;-80
2022/12/23 03:47:43;;;;;;;11.35;7.10;;;;;;;8.95;100.00;100395.25;5034514;28;20083;-79
2022/12/23 03:50:11;;;;;;;13.45;7.38;;;;;;;8.98;100.00;100409.06;5039045;28;20028;-80
2022/12/23 03:52:45;;;;;;;11.98;7.78;;;;;;;8.96;100.00;100396.13;5037550;28;20036;-79
2022/12/23 03:55:19;;;;;;;12.15;7.38;;;;;;;8.95;100.00;100400.44;5035780;28;20107;-80
2022/12/23 03:58:17;;;;;;;11.80;7.28;;;;;;;8.95;100.00;100389.25;5034400;28;20120;-80
2022/12/23 04:00:49;;;;;;;13.50;7.45;;;;;;;8.94;100.00;100396.16;5028952;28;20037;-80
2022/12/23 04:03:43;;;;;;;11.30;7.60;;;;;;;8.96;100.00;100406.50;5034490;28;20036;-80
2022/12/23 04:06:14;;;;;;;11.65;7.03;;;;;;;8.95;100.00;100404.81;5035910;28;20037;-80
2022/12/23 04:08:42;;;;;;;12.50;7.38;;;;;;;8.96;100.00;100409.09;5033614;28;20033;-80
2022/12/23 04:11:07;;;;;;;12.73;7.85;;;;;;;8.95;100.00;100410.00;5045825;28;20553;-80
2022/12/23 04:13:33;;;;;;;15.88;7.90;;;;;;;8.96;100.00;100415.13;5036615;28;20116;-80
2022/12/23 04:16:00;;;;;;;11.98;7.60;;;;;;;8.95;100.00;100415.19;5037357;28;20395;-80
2022/12/23 04:18:26;;;;;;;12.43;7.53;;;;;;;8.95;100.00;100418.63;5034190;28;20385;-79
2022/12/23 04:20:51;;;;;;;12.68;7.45;;;;;;;8.96;100.00;100428.09;5036182;28;20048;-80
2022/12/23 04:23:16;;;;;;;12.63;7.22;;;;;;;8.95;100.00;100426.41;5033097;28;20017;-80
2022/12/23 04:25:42;;;;;;;11.85;7.43;;;;;;;8.95;100.00;100416.03;5035390;28;20033;-80
2022/12/23 04:28:07;;;;;;;11.40;7.13;;;;;;;8.95;100.00;100425.56;5033020;28;20028;-80
2022/12/23 04:30:32;;;;;;;10.82;6.90;;;;;;;8.98;100.00;100435.00;5035196;28;20029;-80
2022/12/23 04:32:57;;;;;;;13.25;7.38;;;;;;;8.94;100.00;100435.06;5032591;28;20107;-80
2022/12/23 04:35:23;;;;;;;12.93;7.25;;;;;;;8.95;100.00;100444.56;5034433;28;20189;-80
2022/12/23 04:37:48;;;;;;;12.02;7.13;;;;;;;8.94;100.00;100439.41;5032442;28;20025;-80
2022/12/23 04:40:14;;;;;;;13.07;7.70;;;;;;;8.94;100.00;100448.03;5031152;28;20021;-80
2022/12/23 04:42:39;;;;;;;15.07;8.15;;;;;;;8.93;100.00;100448.94;5030931;28;20524;-80
2022/12/23 04:45:05;;;;;;;11.95;7.68;;;;;;;8.92;100.00;100461.94;5030803;28;20036;-80
2022/12/23 04:47:30;;;;;;;13.48;7.82;;;;;;;8.90;100.00;100443.81;5033905;28;20100;-80
2022/12/23 04:49:55;;;;;;;13.48;8.57;;;;;;;8.90;100.00;100443.81;5031532;28;20021;-80
2022/12/23 04:52:21;;;;;;;16.55;8.85;;;;;;;8.91;100.00;100448.13;5036477;28;20029;-80
2022/12/23 04:54:46;;;;;;;13.57;8.15;;;;;;;8.91;100.00;100445.53;5036267;28;20047;-80
2022/12/23 04:57:12;;;;;;;14.90;8.63;;;;;;;8.90;100.00;100432.59;5032150;28;20036;-80
2022/12/23 04:59:37;;;;;;;16.73;8.80;;;;;;;8.91;100.00;100432.53;5035423;28;20025;-79
2022/12/23 05:02:02;;;;;;;13.35;8.07;;;;;;;8.89;100.00;100428.31;5030711;28;20026;-80
2022/12/23 05:04:28;;;;;;;17.83;8.57;;;;;;;8.88;100.00;100422.25;5029101;28;20030;-80
2022/12/23 05:06:53;;;;;;;15.75;8.55;;;;;;;8.86;100.00;100416.28;5029973;28;20030;-79
2022/12/23 05:09:18;;;;;;;14.80;8.30;;;;;;;8.87;100.00;100417.97;5038505;28;20467;-80
2022/12/23 05:11:44;;;;;;;14.32;8.63;;;;;;;8.87;100.00;100417.09;5033897;28;20079;-80
2022/12/23 05:14:10;;;;;;;13.60;8.35;;;;;;;8.88;100.00;100418.81;5033822;28;20239;-80
2022/12/23 05:16:35;;;;;;;14.85;9.00;;;;;;;8.89;100.00;100415.31;5036476;28;20461;-80
2022/12/23 05:19:00;;;;;;;16.27;8.75;;;;;;;8.90;100.00;100419.63;5033240;28;20061;-80
2022/12/23 05:21:26;;;;;;;15.18;8.82;;;;;;;8.90;100.00;100423.06;5041907;28;20040;-80
2022/12/23 05:23:51;;;;;;;17.52;9.23;;;;;;;8.90;100.00;100436.03;5032068;28;20031;-80
2022/12/23 05:26:16;;;;;;;17.75;9.50;;;;;;;8.90;100.00;100438.63;5047079;28;20035;-80
2022/12/23 05:28:44;;;;;;;17.17;9.45;;;;;;;8.90;100.00;100448.16;5030220;28;20036;-80
2022/12/23 05:31:11;;;;;;;14.88;9.20;;;;;;;8.90;100.00;100456.78;5026272;28;20029;-80
2022/12/23 05:33:37;;;;;;;17.88;9.38;;;;;;;8.89;100.00;100460.28;5028202;28;20420;-80
2022/12/23 05:36:03;;;;;;;17.75;9.10;;;;;;;8.89;100.00;100468.06;5025639;28;20033;-80
2022/12/23 05:38:28;;;;;;;18.40;10.13;;;;;;;8.88;100.00;100466.34;5030599;28;20033;-80
2022/12/23 05:40:54;;;;;;;19.90;10.38;;;;;;;8.88;100.00;100466.34;5032873;28;20029;-80
2022/12/23 05:43:19;;;;;;;19.67;10.48;;;;;;;8.88;100.00;100471.53;5032016;28;20549;-80
2022/12/23 05:45:45;;;;;;;19.20;11.07;;;;;;;8.86;100.00;100473.34;5030243;28;20036;-80
2022/12/23 05:48:10;;;;;;;19.85;11.38;;;;;;;8.87;100.00;100474.19;5025453;28;20061;-80
2022/12/23 05:50:38;;;;;;;20.65;10.38;;;;;;;8.84;100.00;100482.91;5031375;28;20459;-80
2022/12/23 05:53:04;;;;;;;19.27;10.57;;;;;;;8.84;100.00;100482.91;5031977;28;20061;-80
2022/12/23 05:55:29;;;;;;;20.60;10.63;;;;;;;8.85;100.00;100486.31;5029847;28;20021;-81
2022/12/23 05:57:54;;;;;;;20.85;11.23;;;;;;;8.84;100.00;100471.66;5031687;28;20033;-80
2022/12/23 06:00:20;;;;;;;19.95;10.20;;;;;;;8.84;100.00;100476.84;5031705;28;20109;-80
2022/12/23 06:02:46;;;;;;;19.02;10.75;;;;;;;8.85;100.00;100465.56;5025779;28;20075;-80
2022/12/23 06:05:11;;;;;;;20.35;11.13;;;;;;;8.82;100.00;100458.72;5027217;28;20040;-79
2022/12/23 06:07:38;;;;;;;19.70;10.85;;;;;;;8.82;100.00;100461.31;5030934;28;20425;-80
2022/12/23 06:10:04;;;;;;;20.85;10.43;;;;;;;8.82;100.00;100453.53;5031888;28;20029;-80
2022/12/23 06:12:29;;;;;;;19.70;9.93;;;;;;;8.82;100.00;100450.94;5035349;28;20040;-80
2022/12/23 06:14:55;;;;;;;19.05;10.48;;;;;;;8.81;100.00;100454.44;5029782;28;20389;-80
2022/12/23 06:17:20;;;;;;;20.73;10.60;;;;;;;8.80;100.00;100447.53;5029299;28;20104;-81
2022/12/23 06:19:46;;;;;;;20.00;11.02;;;;;;;8.81;100.00;100450.09;5029702;28;20056;-81
2022/12/23 06:22:11;;;;;;;20.10;10.65;;;;;;;8.79;100.00;100448.44;5030289;28;20061;-81
2022/12/23 06:24:37;;;;;;;20.17;10.45;;;;;;;8.80;100.00;100445.78;5034936;28;20029;-80
2022/12/23 06:27:03;;;;;;;21.80;11.27;;;;;;;8.80;100.00;100431.97;5031326;28;20036;-81
2022/12/23 06:29:28;;;;;;;22.73;12.10;;;;;;;8.79;100.00;100422.50;5035828;28;20476;-80
2022/12/23 06:31:53;;;;;;;19.05;10.90;;;;;;;8.79;100.00;100435.47;5033880;28;20034;-80
2022/12/23 06:34:18;;;;;;;20.25;10.75;;;;;;;8.79;100.00;100440.66;5030014;28;20087;-81
2022/12/23 06:36:44;;;;;;;20.25;10.52;;;;;;;8.80;100.00;100447.53;5031833;28;20032;-81
2022/12/23 06:39:10;;;;;;;20.23;10.43;;;;;;;8.79;100.00;100446.69;5030101;28;20021;-81
2022/12/23 06:41:35;;;;;;;21.10;10.57;;;;;;;8.79;100.00;100451.88;5026844;28;20055;-80
2022/12/23 06:44:00;;;;;;;20.02;9.75;;;;;;;8.80;100.00;100452.72;5035418;28;20095;-80
2022/12/23 06:46:26;;;;;;;18.73;10.07;;;;;;;8.78;100.00;100449.31;5030019;28;20037;-80
2022/12/23 06:48:51;;;;;;;20.70;10.00;;;;;;;8.80;100.00;100456.16;5036841;28;20399;-80
2022/12/23 06:51:16;;;;;;;22.25;11.18;;;;;;;8.78;100.00;100463.16;5028571;28;20021;-80
2022/12/23 06:53:41;;;;;;;20.73;10.55;;;;;;;8.80;100.00;100463.09;5037636;28;20035;-80
2022/12/23 06:56:07;;;;;;;19.38;10.65;;;;;;;8.77;100.00;100463.16;5029559;28;20095;-80
2022/12/23 06:58:32;;;;;;;20.98;10.77;;;;;;;8.78;100.00;100464.88;5030863;28;20465;-81
2022/12/23 07:00:57;;;;;;;19.05;10.35;;;;;;;8.77;100.00;100468.34;5029011;28;20521;-81
2022/12/23 07:03:22;;;;;;;20.63;10.75;;;;;;;8.77;100.00;100483.91;5033443;28;20044;-80
2022/12/23 07:05:49;;;;;;;23.27;10.23;;;;;;;8.76;100.00;100496.06;5033271;28;20040;-80
2022/12/23 07:08:14;;;;;;;22.33;10.23;;;;;;;8.77;100.00;100509.84;5032659;28;20213;-80
2022/12/23 07:10:40;;;;;;;18.25;9.75;;;;;;;8.75;100.00;100512.50;5031666;28;20520;-81
2022/12/23 07:13:05;;;;;;;17.55;9.32;;;;;;;8.76;100.00;100539.28;5034844;28;20033;-80
2022/12/23 07:15:30;;;;;;;20.55;9.75;;;;;;;8.76;100.00;100534.09;5039497;28;20039;-81
2022/12/23 07:17:55;;;;;;;18.48;9.40;;;;;;;8.75;100.00;100528.06;5040185;28;20439;-80
2022/12/23 07:20:21;;;;;;;17.52;9.40;;;;;;;8.75;100.00;100525.47;5030076;28;20033;-80
2022/12/23 07:22:46;;;;;;;21.92;10.15;;;;;;;8.75;100.00;100528.06;5030474;28;20362;-79
2022/12/23 07:25:11;;;;;;;19.40;10.35;;;;;;;8.75;100.00;100504.72;5035078;28;20029;-80
2022/12/23 07:27:37;;;;;;;21.63;11.20;;;;;;;8.74;100.00;100502.16;5037339;28;20537;-80
2022/12/23 07:30:03;;;;;;;23.13;11.80;;;;;;;8.74;100.00;100496.97;5032003;28;20025;-80
2022/12/23 07:32:28;;;;;;;23.98;12.30;;;;;;;8.72;100.00;100501.31;5033602;28;20055;-80
2022/12/23 07:34:54;;;;;;;25.60;12.77;;;;;;;8.74;100.00;100504.75;5035603;28;20022;-80
2022/12/23 07:37:19;;;;;;;23.77;12.48;;;;;;;8.75;100.00;100507.31;5032437;28;20535;-80
2022/12/23 07:39:44;;;;;;;22.67;12.50;;;;;;;8.75;100.00;100498.66;5043852;28;20025;-80
2022/12/23 07:42:10;;;;;;;25.58;13.20;;;;;;;8.75;100.00;100498.66;5034399;28;20044;-80
2022/12/23 07:44:35;;;;;;;22.77;13.27;;;;;;;8.75;100.00;100494.34;5032473;28;20040;-80
2022/12/23 07:47:00;;;;;;;23.05;12.27;;;;;;;8.75;100.00;100499.53;5030680;28;20025;-80
2022/12/23 07:49:26;;;;;;;23.58;12.73;;;;;;;8.76;100.00;100497.78;5037602;28;20341;-80
2022/12/23 07:51:51;;;;;;;22.75;12.73;;;;;;;8.76;100.00;100492.59;5036960;28;20040;-80
2022/12/23 07:54:16;;;;;;;26.08;13.13;;;;;;;8.76;100.00;100492.59;5034652;28;20033;-80
2022/12/23 07:56:41;;;;;;;24.60;13.40;;;;;;;8.76;100.00;100495.19;5030845;28;20416;-80
2022/12/23 07:59:07;;;;;;;23.25;13.07;;;;;;;8.76;100.00;100495.19;5029290;28;20041;-80
2022/12/23 08:01:32;;;;;;;28.20;13.75;;;;;;;8.75;100.00;100486.56;5031955;28;20480;-80
2022/12/23 08:03:57;;;;;;;25.77;13.70;;;;;;;8.77;100.00;100500.34;5031776;28;20113;-80
2022/12/23 08:06:22;;;;;;;25.77;13.52;;;;;;;8.76;100.00;100500.38;5033587;28;20044;-80
2022/12/23 08:08:48;;;;;;;26.10;13.60;;;;;;;8.76;100.00;100496.06;5034528;28;20376;-80
2022/12/23 08:11:14;;;;;;;27.17;13.48;;;;;;;8.75;100.00;100493.47;5034183;28;20036;-80
2022/12/23 08:13:42;;;;;;;24.83;13.23;;;;;;;8.75;100.00;100496.06;5033645;28;20037;-80
2022/12/23 08:16:08;;;;;;;26.60;13.45;;;;;;;8.73;100.00;100497.84;5034481;28;20428;-81
2022/12/23 08:18:36;;;;;;;28.50;14.07;;;;;;;8.73;100.00;100495.25;5034020;28;20050;-80
2022/12/23 08:21:11;;;;;;;30.25;14.75;;;;;;;8.72;100.00;100490.94;5033533;28;20033;-80
2022/12/23 08:23:36;;;;;;;27.25;14.20;;;;;;;8.70;100.00;100479.78;5034347;28;20026;-80
2022/12/23 08:26:05;;;;;;;35.45;15.73;;;;;;;8.72;100.00;100471.06;5032918;28;20101;-80
2022/12/23 08:28:31;;;;;;;27.70;14.30;;;;;;;8.73;100.00;100471.91;5034265;28;20033;-80
2022/12/23 08:31:24;;;;;;;29.65;15.10;;;;;;;8.73;100.00;100477.09;5033563;28;20040;-80
2022/12/23 08:33:52;;;;;;;30.17;14.43;;;;;;;8.72;100.00;100480.56;5032981;28;20159;-80
2022/12/23 08:36:21;;;;;;;28.02;14.50;;;;;;;8.72;100.00;100470.19;5033878;28;20030;-80
2022/12/23 08:38:46;;;;;;;31.60;15.07;;;;;;;8.72;100.00;100470.19;5033474;28;20022;-80
2022/12/23 08:41:15;;;;;;;31.05;14.93;;;;;;;8.71;100.00;100471.97;5025597;28;20385;-80
2022/12/23 08:43:41;;;;;;;30.75;14.98;;;;;;;8.70;100.00;100479.78;5034785;28;20492;-80
2022/12/23 08:46:07;;;;;;;29.15;14.63;;;;;;;8.69;100.00;100475.50;5034188;28;20026;-80
2022/12/23 08:48:33;;;;;;;33.47;15.43;;;;;;;8.69;100.00;100478.09;5033243;28;20037;-80
2022/12/23 08:51:07;;;;;;;37.97;15.13;;;;;;;8.68;100.00;100476.38;5034567;28;20021;-80
2022/12/23 08:53:34;;;;;;;29.25;14.27;;;;;;;8.68;100.00;100473.78;5034069;28;20399;-80
2022/12/23 08:56:05;;;;;;;27.90;13.95;;;;;;;8.65;100.00;100462.59;5033084;28;20109;-80
2022/12/23 08:58:35;;;;;;;31.05;14.40;;;;;;;8.66;100.00;100460.84;5034108;28;20037;-80
2022/12/23 09:01:06;;;;;;;30.30;13.82;;;;;;;8.66;100.00;100453.06;5032820;28;20461;-80
2022/12/23 09:03:32;;;;;;;30.02;14.18;;;;;;;8.65;100.00;100449.63;5032933;28;20523;-80
2022/12/23 09:05:57;;;;;;;31.00;14.00;;;;;;;8.67;100.00;100440.97;5023678;28;20079;-80
2022/12/23 09:08:23;;;;;;;26.33;13.60;;;;;;;8.65;100.00;100444.44;5032580;28;20033;-80
2022/12/23 09:10:48;;;;;;;27.27;13.73;;;;;;;8.66;100.00;100445.28;5032371;28;20175;-80
2022/12/23 09:13:13;;;;;;;28.90;13.00;;;;;;;8.67;100.00;100451.34;5033434;28;20032;-80
2022/12/23 09:15:43;;;;;;;27.85;12.73;;;;;;;8.65;100.00;100444.44;5031992;28;20040;-80
2022/12/23 09:18:09;;;;;;;24.85;12.30;;;;;;;8.63;100.00;100435.84;5031941;28;20037;-80
2022/12/23 09:20:35;;;;;;;26.08;12.13;;;;;;;8.65;100.00;100438.38;5031612;28;20060;-80
2022/12/23 09:23:01;;;;;;;25.17;11.73;;;;;;;8.67;100.00;100430.59;5032042;28;20392;-80
2022/12/23 09:25:26;;;;;;;25.38;12.07;;;;;;;8.66;100.00;100434.91;5030807;28;20030;-80
2022/12/23 09:27:52;;;;;;;25.02;11.10;;;;;;;8.65;100.00;100421.09;5032524;28;20116;-80
2022/12/23 09:30:17;;;;;;;26.42;11.85;;;;;;;8.68;100.00;100414.13;5031469;28;20033;-80
2022/12/23 09:32:42;;;;;;;23.95;11.40;;;;;;;8.67;100.00;100413.28;5031240;28;20075;-80
2022/12/23 09:35:08;;;;;;;22.98;11.02;;;;;;;8.67;100.00;100413.28;5049600;28;20551;-80
2022/12/23 09:37:34;;;;;;;22.83;10.90;;;;;;;8.69;100.00;100411.50;5029466;28;20036;-80
2022/12/23 09:39:59;;;;;;;22.67;10.75;;;;;;;8.69;100.00;100403.72;5028528;28;20033;-80
2022/12/23 09:42:56;;;;;;;24.77;10.88;;;;;;;8.71;100.00;100398.50;5019407;28;20048;-78
2022/12/23 09:45:36;;;;;;;23.63;10.38;;;;;;;8.70;100.00;100397.63;5015754;28;20151;-80
2022/12/23 09:48:03;;;;;;;24.40;10.52;;;;;;;8.70;100.00;100389.03;5023230;28;20044;-81
2022/12/23 09:50:31;;;;;;;21.20;10.50;;;;;;;8.69;100.00;100387.31;5024893;28;20044;-81
2022/12/23 09:53:04;;;;;;;23.52;10.73;;;;;;;8.70;100.00;100389.03;5024872;28;20142;-81
2022/12/23 09:55:43;;;;;;;23.00;9.93;;;;;;;8.71;100.00;100380.34;5024847;28;20087;-80
2022/12/23 09:58:17;;;;;;;21.77;10.15;;;;;;;8.70;100.00;100368.28;5023689;28;20590;-80
2022/12/23 10:00:54;;;;;;;20.02;8.90;;;;;;;8.69;100.00;100367.41;5024333;28;21039;-79
2022/12/23 10:03:25;;;;;;;19.58;8.90;;;;;;;8.69;100.00;100363.97;5024485;28;20045;-80
2022/12/23 10:05:59;;;;;;;19.20;8.63;;;;;;;8.70;100.00;100369.13;5025594;28;20140;-81
2022/12/23 10:08:33;;;;;;;19.65;8.63;;;;;;;8.72;100.00;100376.84;5023556;28;20026;-81
2022/12/23 10:11:19;;;;;;;16.58;8.20;;;;;;;8.69;100.00;100376.94;5022413;28;20033;-81
2022/12/23 10:13:49;;;;;;;17.85;8.73;;;;;;;8.69;100.00;100374.34;5023570;28;20046;-81
2022/12/23 10:16:21;;;;;;;15.45;8.10;;;;;;;8.69;100.00;100376.94;5025140;28;20439;-81
2022/12/23 10:18:56;;;;;;;16.67;7.55;;;;;;;8.68;100.00;100372.66;5024626;28;20045;-81
2022/12/23 10:21:30;;;;;;;18.48;8.00;;;;;;;8.69;100.00;100361.38;5023309;28;20033;-80
2022/12/23 10:24:01;;;;;;;14.38;7.43;;;;;;;8.67;100.00;100358.81;5024829;28;20476;-80
2022/12/23 10:26:44;;;;;;;14.23;7.63;;;;;;;8.67;100.00;100357.97;5025344;28;20044;-80
2022/12/23 10:29:18;;;;;;;12.73;7.07;;;;;;;8.65;100.00;100345.91;5025113;28;20279;-80
2022/12/23 10:31:56;;;;;;;15.02;7.00;;;;;;;8.65;100.00;100345.91;5021919;28;20025;-79
2022/12/23 10:34:43;;;;;;;14.57;6.88;;;;;;;8.63;100.00;100332.13;5025111;28;20391;-81
2022/12/23 10:37:22;;;;;;;14.70;7.07;;;;;;;8.66;100.00;100336.34;5028681;28;20044;-80
2022/12/23 10:40:02;;;;;;;14.23;6.63;;;;;;;8.65;100.00;100321.69;5027960;28;20472;-80
2022/12/23 10:42:47;;;;;;;12.57;6.18;;;;;;;8.68;100.00;100328.56;5029283;28;20735;-80
2022/12/23 10:45:32;;;;;;;12.98;6.30;;;;;;;8.67;100.00;100325.09;5029851;28;20160;-80
2022/12/23 10:48:14;;;;;;;11.73;6.32;;;;;;;8.69;100.00;100325.06;5029025;28;20427;-80
2022/12/23 10:50:52;;;;;;;11.43;5.82;;;;;;;8.69;100.00;100317.28;5027190;28;20040;-80
2022/12/23 10:54:03;;;;;;;13.25;6.28;;;;;;;8.72;100.00;100305.09;5026905;28;20037;-80
2022/12/23 10:56:29;;;;;;;11.63;5.97;;;;;;;8.75;100.00;100309.34;5027714;28;21290;-80
2022/12/23 10:58:58;;;;;;;10.18;5.95;;;;;;;8.75;100.00;100293.78;5027522;28;20092;-80
2022/12/23 11:01:23;;;;;;;12.82;5.72;;;;;;;8.77;100.00;100292.84;5027734;28;20029;-79
2022/12/23 11:04:01;;;;;;;10.20;6.05;;;;;;;8.80;100.00;100281.53;5027357;28;20487;-78
2022/12/23 11:06:27;;;;;;;11.40;6.03;;;;;;;8.80;100.00;100279.78;5026681;28;20025;-79
2022/12/23 11:08:55;;;;;;;11.27;6.15;;;;;;;8.80;100.00;100276.34;5027298;28;20044;-78
2022/12/23 11:11:20;;;;;;;11.57;5.93;;;;;;;8.81;100.00;100265.09;5029072;28;20037;-81
2022/12/23 11:13:46;;;;;;;10.70;5.82;;;;;;;8.78;100.00;100252.19;5026740;28;20043;-79
2022/12/23 11:16:11;;;;;;;10.48;5.60;;;;;;;8.78;100.00;100242.69;5028763;28;20026;-79
2022/12/23 11:18:37;;;;;;;9.23;5.20;;;;;;;8.77;100.00;100235.81;5028731;28;20069;-79
2022/12/23 11:21:04;;;;;;;9.63;5.30;;;;;;;8.79;100.00;100238.34;5027184;28;20076;-79
2022/12/23 11:23:32;;;;;;;10.48;5.35;;;;;;;8.79;100.00;100240.94;5028452;28;20029;-79
2022/12/23 11:26:07;;;;;;;10.50;5.43;;;;;;;8.78;100.00;100239.22;5026177;28;20112;-80
2022/12/23 11:28:36;;;;;;;9.45;5.05;;;;;;;8.78;100.00;100242.69;5026890;28;20026;-80
2022/12/23 11:31:07;;;;;;;10.98;5.22;;;;;;;8.76;100.00;100233.22;5027698;28;20040;-80
2022/12/23 11:33:39;;;;;;;9.52;5.10;;;;;;;8.76;100.00;100228.91;5029482;28;20037;-80
2022/12/23 11:36:10;;;;;;;8.95;4.82;;;;;;;8.75;100.00;100226.34;5027966;28;20033;-79
2022/12/23 11:38:45;;;;;;;11.57;5.03;;;;;;;8.73;100.00;100217.75;5027654;28;20136;-79
2022/12/23 11:41:19;;;;;;;9.35;4.90;;;;;;;8.72;100.00;100216.06;5025186;28;20159;-79
2022/12/23 11:43:59;;;;;;;9.65;5.10;;;;;;;8.72;100.00;100216.06;5027332;28;20733;-79
2022/12/23 11:46:28;;;;;;;9.88;4.78;;;;;;;8.69;100.00;100209.22;5025850;28;20035;-79
2022/12/23 11:49:15;;;;;;;10.80;5.05;;;;;;;8.70;100.00;100207.50;5026496;28;20037;-80
2022/12/23 11:51:42;;;;;;;11.02;5.20;;;;;;;8.69;100.00;100198.00;5025169;28;20528;-80
2022/12/23 11:54:15;;;;;;;8.90;5.28;;;;;;;8.70;100.00;100191.94;5025828;28;20089;-79